Seward, Pennsylvania
Current Conditions -  °F | °C
As of 6:54 AM on Saturday 25 Oct 2014 (Local Time) from KJST Reporting Station
Clear Clear  
Wind Chill: 43°   Ceiling: Unl
Heat Index: 48°   Visibility: 10mi
Dew Point: 36°   Wind: 12mph
Humidity: 63%   Direction: 260°W
Pressure: 29.94"   Gusts: NA
Location:  40.41°N, 79.02°W
Report Text: KJST 251054Z AUTO 26010KT 10SM CLR 09/02 A2994 RMK AO2 SLP144 T00890022
Loading
Personal Weather Stations






























Interactive Weather Map
Tropical Storm Tracking
New forecast layout! Learn more

10-Day Weather Forecast

Advertisements
Track Severe Weather on mobile